createdAt,value
2022-11-18T00:01:20.672Z,99428.11
2022-11-18T00:04:12.111Z,99422.20
2022-11-18T00:07:03.637Z,99425.84
2022-11-18T00:09:55.489Z,99432.11
2022-11-18T00:13:05.695Z,99438.18
2022-11-18T00:16:05.244Z,99441.81
2022-11-18T00:18:56.776Z,99440.02
2022-11-18T00:21:48.865Z,99438.02
2022-11-18T00:24:40.901Z,99438.81
2022-11-18T00:27:33.953Z,99445.72
2022-11-18T00:30:25.828Z,99444.55
2022-11-18T00:33:17.272Z,99454.08
2022-11-18T00:36:11.401Z,99452.88
2022-11-18T00:39:03.164Z,99456.78
2022-11-18T00:42:13.290Z,99456.41
2022-11-18T00:45:04.890Z,99452.61
2022-11-18T00:47:56.775Z,99457.51
2022-11-18T00:50:48.088Z,99458.60
2022-11-18T00:53:39.020Z,99462.50
2022-11-18T00:56:30.250Z,99473.47
2022-11-18T00:59:21.768Z,99475.56
2022-11-18T01:02:13.471Z,99476.00
2022-11-18T01:05:05.349Z,99482.53
2022-11-18T01:07:56.873Z,99464.53
2022-11-18T01:10:49.374Z,99461.52
2022-11-18T01:13:41.721Z,99459.14
2022-11-18T01:16:32.985Z,99458.56
2022-11-18T01:19:25.365Z,99454.38
2022-11-18T01:22:16.914Z,99448.72
2022-11-18T01:25:09.167Z,99454.25
2022-11-18T01:28:00.449Z,99441.48
2022-11-18T01:30:51.732Z,99443.75
2022-11-18T01:33:44.124Z,99437.09
2022-11-18T01:36:36.166Z,99438.34
2022-11-18T01:39:27.405Z,99434.34
2022-11-18T01:42:19.611Z,99441.88
2022-11-18T01:45:16.857Z,99443.33
2022-11-18T01:48:12.989Z,99442.13
2022-11-18T01:51:08.581Z,99437.47
2022-11-18T01:54:03.478Z,99440.55
2022-11-18T01:56:58.712Z,99434.89
2022-11-18T01:59:55.544Z,99444.06
2022-11-18T02:02:47.760Z,99450.59
2022-11-18T02:05:41.572Z,99453.02
2022-11-18T02:08:37.604Z,99448.19
2022-11-18T02:11:46.811Z,99439.05
2022-11-18T02:14:43.397Z,99455.34
2022-11-18T02:17:44.991Z,99471.42
2022-11-18T02:20:39.808Z,99472.04
2022-11-18T02:24:04.576Z,99474.47
2022-11-18T02:27:32.459Z,99491.56
2022-11-18T02:30:24.709Z,99489.92
2022-11-18T02:33:24.900Z,99482.63
2022-11-18T02:36:22.414Z,99480.83
2022-11-18T02:39:22.064Z,99484.09
2022-11-18T02:42:16.657Z,99484.09
2022-11-18T02:45:14.031Z,99485.72
2022-11-18T02:48:09.197Z,99487.35
2022-11-18T02:51:02.484Z,99492.63
2022-11-18T02:53:55.764Z,99478.42
2022-11-18T02:56:53.583Z,99468.48
2022-11-18T02:59:45.660Z,99465.01
2022-11-18T03:02:45.586Z,99470.11
2022-11-18T03:05:43.042Z,99460.34
2022-11-18T03:08:40.691Z,99459.34
2022-11-18T03:11:35.442Z,99476.81
2022-11-18T03:14:36.924Z,99467.27
2022-11-18T03:17:38.454Z,99473.16
2022-11-18T03:20:34.643Z,99467.70
2022-11-18T03:23:33.650Z,99472.16
2022-11-18T03:26:31.521Z,99469.52
2022-11-18T03:29:27.908Z,99470.97
2022-11-18T03:32:24.680Z,99463.84
2022-11-18T03:35:20.736Z,99460.19
2022-11-18T03:38:16.150Z,99463.66
2022-11-18T03:41:10.515Z,99461.83
2022-11-18T03:44:06.634Z,99458.38
2022-11-18T03:47:03.321Z,99472.59
2022-11-18T03:49:59.149Z,99472.39
2022-11-18T03:52:52.672Z,99476.05
2022-11-18T03:55:49.300Z,99472.39
2022-11-18T03:58:46.962Z,99468.33
2022-11-18T04:01:46.332Z,99470.52
2022-11-18T04:04:38.391Z,99474.17
2022-11-18T04:07:34.694Z,99475.19
2022-11-18T04:10:32.454Z,99483.31
2022-11-18T04:13:30.434Z,99490.41
2022-11-18T04:16:22.484Z,99499.55
2022-11-18T04:19:14.529Z,99493.81
2022-11-18T04:22:06.169Z,99493.41
2022-11-18T04:24:57.733Z,99496.22
2022-11-18T04:27:49.219Z,99500.70
2022-11-18T04:30:41.100Z,99502.33
2022-11-18T04:33:32.948Z,99504.14
2022-11-18T04:36:24.572Z,99518.34
2022-11-18T04:39:18.587Z,99507.99
2022-11-18T04:42:10.727Z,99515.29
2022-11-18T04:45:02.118Z,99517.09
2022-11-18T04:47:56.576Z,99520.95
2022-11-18T04:50:50.303Z,99515.67
2022-11-18T04:53:41.935Z,99514.21
2022-11-18T04:56:33.511Z,99515.81
2022-11-18T04:59:28.016Z,99515.81
2022-11-18T05:02:19.894Z,99520.25
2022-11-18T05:05:11.532Z,99518.83
2022-11-18T05:08:02.948Z,99517.99
2022-11-18T05:11:15.030Z,99521.64
2022-11-18T05:14:06.761Z,99522.02
2022-11-18T05:17:00.037Z,99521.22
2022-11-18T05:19:51.557Z,99520.22
2022-11-18T05:22:43.074Z,99528.13
2022-11-18T05:25:34.266Z,99530.77
2022-11-18T05:28:26.187Z,99530.56
2022-11-18T05:31:18.974Z,99539.31
2022-11-18T05:34:11.044Z,99548.87
2022-11-18T05:37:07.385Z,99549.04
2022-11-18T05:39:59.079Z,99543.77
2022-11-18T05:43:26.594Z,99542.96
2022-11-18T05:46:17.676Z,99547.03
2022-11-18T05:49:08.985Z,99550.50
2022-11-18T05:52:00.902Z,99549.49
2022-11-18T05:54:53.026Z,99547.03
2022-11-18T05:57:44.915Z,99550.50
2022-11-18T06:00:37.530Z,99546.65
2022-11-18T06:03:32.118Z,99548.11
2022-11-18T06:06:26.134Z,99547.91
2022-11-18T06:09:21.963Z,99555.65
2022-11-18T06:12:19.877Z,99554.81
2022-11-18T06:15:17.634Z,99553.39
2022-11-18T06:18:12.860Z,99556.41
2022-11-18T06:21:09.247Z,99561.30
2022-11-18T06:24:00.919Z,99557.28
2022-11-18T06:26:53.007Z,99552.42
2022-11-18T06:29:44.405Z,99557.32
2022-11-18T06:32:36.063Z,99551.03
2022-11-18T06:35:27.439Z,99554.30
2022-11-18T06:38:21.086Z,99550.27
2022-11-18T06:41:12.785Z,99537.70
2022-11-18T06:44:04.112Z,99545.23
2022-11-18T06:46:58.904Z,99532.66
2022-11-18T06:49:50.248Z,99539.39
2022-11-18T06:52:41.578Z,99533.28
2022-11-18T06:55:33.473Z,99542.83
2022-11-18T06:58:26.795Z,99546.09
2022-11-18T07:01:18.914Z,99555.48
2022-11-18T07:04:19.105Z,99561.00
2022-11-18T07:07:11.080Z,99556.97
2022-11-18T07:10:02.642Z,99556.58
2022-11-18T07:12:54.234Z,99549.70
2022-11-18T07:15:45.535Z,99548.12
2022-11-18T07:18:38.705Z,99543.08
2022-11-18T07:21:31.469Z,99539.66
2022-11-18T07:24:22.790Z,99542.53
2022-11-18T07:27:14.416Z,99538.48
2022-11-18T07:30:06.398Z,99534.39
2022-11-18T07:32:57.966Z,99536.63
2022-11-18T07:35:49.280Z,99531.13
2022-11-18T07:38:41.706Z,99525.06
2022-11-18T07:41:34.489Z,99518.37
2022-11-18T07:44:24.151Z,99508.86
2022-11-18T07:47:15.863Z,99507.23
2022-11-18T07:50:08.233Z,99505.25
2022-11-18T07:53:00.427Z,99506.89
2022-11-18T07:55:51.859Z,99500.20
2022-11-18T07:58:43.646Z,99502.44
2022-11-18T08:01:35.347Z,99507.34
2022-11-18T08:04:27.291Z,99507.37
2022-11-18T08:07:18.787Z,99509.22
2022-11-18T08:10:12.000Z,99507.98
2022-11-18T08:13:03.714Z,99509.03
2022-11-18T08:15:56.781Z,99513.92
2022-11-18T08:18:49.447Z,99514.53
2022-11-18T08:21:39.716Z,99519.23
2022-11-18T08:24:31.218Z,99513.95
2022-11-18T08:27:23.154Z,99521.08
2022-11-18T08:30:16.101Z,99515.59
2022-11-18T08:33:08.001Z,99508.68
2022-11-18T08:35:59.352Z,99511.53
2022-11-18T08:38:51.084Z,99512.14
2022-11-18T08:41:44.757Z,99506.46
2022-11-18T08:44:36.492Z,99511.13
2022-11-18T08:47:28.043Z,99516.67
2022-11-18T08:50:19.764Z,99521.95
2022-11-18T08:53:11.276Z,99516.84
2022-11-18T08:56:03.420Z,99510.91
2022-11-18T08:58:55.622Z,99517.02
2022-11-18T09:01:47.011Z,99516.38
2022-11-18T09:04:38.766Z,99510.85
2022-11-18T09:07:31.787Z,99522.86
2022-11-18T09:10:23.619Z,99511.83
2022-11-18T09:13:43.436Z,99512.81
2022-11-18T09:16:28.717Z,99501.96
2022-11-18T09:19:45.454Z,99499.89
2022-11-18T09:22:30.236Z,99503.75
2022-11-18T09:25:22.159Z,99491.29
2022-11-18T09:28:33.423Z,99490.49
2022-11-18T09:31:28.191Z,99483.98
2022-11-18T09:34:29.008Z,99481.28
2022-11-18T09:37:26.493Z,99463.53
2022-11-18T09:40:23.665Z,99459.63
2022-11-18T11:02:58.661Z,99327.66
2022-11-18T11:06:44.698Z,99332.05
2022-11-18T11:12:14.514Z,99331.94
2022-11-18T11:14:54.503Z,99327.44
2022-11-18T11:17:35.392Z,99336.80
2022-11-18T11:20:18.670Z,99329.86
2022-11-18T11:37:24.139Z,99315.71
2022-11-18T11:40:26.060Z,99312.47
2022-11-18T11:43:13.322Z,99297.54
2022-11-18T11:46:05.072Z,99299.52
2022-11-18T11:48:53.902Z,99293.60
2022-11-18T11:51:34.004Z,99290.25
2022-11-18T11:54:17.643Z,99282.84
2022-11-18T11:56:56.784Z,99287.02
2022-11-18T11:59:39.127Z,99288.28
2022-11-18T12:02:37.585Z,99288.97
2022-11-18T12:05:23.604Z,99283.63
2022-11-18T12:07:59.823Z,99282.27
2022-11-18T12:10:44.522Z,99272.30
2022-11-18T12:13:27.576Z,99278.09
2022-11-18T12:16:12.911Z,99290.62
2022-11-18T12:18:50.539Z,99294.33
2022-11-18T12:21:58.423Z,99291.66
2022-11-18T12:24:37.862Z,99292.92
2022-11-18T12:27:16.399Z,99280.08
2022-11-18T12:30:01.965Z,99267.80
2022-11-18T12:32:43.054Z,99273.95
2022-11-18T12:35:32.381Z,99273.95
2022-11-18T12:38:06.561Z,99268.84
2022-11-18T12:40:47.239Z,99274.42
2022-11-18T12:44:06.739Z,99271.76
2022-11-18T12:47:00.207Z,99270.14
2022-11-18T12:50:15.406Z,99271.15
2022-11-18T12:52:56.099Z,99268.70
2022-11-18T12:55:34.859Z,99257.84
2022-11-18T12:58:25.743Z,99254.16
2022-11-18T13:01:12.710Z,99249.02
2022-11-18T13:03:46.590Z,99254.34
2022-11-18T13:06:29.944Z,99251.69
2022-11-18T13:09:06.008Z,99247.98
2022-11-18T13:11:51.260Z,99261.11
2022-11-18T13:14:46.658Z,99252.07
2022-11-18T13:17:48.119Z,99242.90
2022-11-18T13:20:31.544Z,99241.97
2022-11-18T13:23:25.210Z,99250.42
2022-11-18T13:26:06.266Z,99249.62
2022-11-18T13:28:48.100Z,99234.70
2022-11-18T13:31:29.149Z,99245.34
2022-11-18T13:34:13.543Z,99242.11
2022-11-18T13:36:49.590Z,99244.20
2022-11-18T13:39:25.384Z,99236.42
2022-11-18T13:42:07.395Z,99238.51
2022-11-18T13:44:41.383Z,99238.98
2022-11-18T13:47:25.568Z,99232.50
2022-11-18T13:50:07.762Z,99239.91
2022-11-18T13:52:45.144Z,99232.63
2022-11-18T13:55:23.929Z,99225.11
2022-11-18T13:58:08.239Z,99215.73
2022-11-18T14:00:41.737Z,99220.72
2022-11-18T14:03:28.141Z,99222.22
2022-11-18T14:06:02.571Z,99221.86
2022-11-18T14:08:38.420Z,99221.53
2022-11-18T14:11:13.259Z,99212.61
2022-11-18T14:14:03.622Z,99206.13
2022-11-18T14:16:40.634Z,99203.34
2022-11-18T14:19:31.659Z,99204.27
2022-11-18T14:22:13.818Z,99202.53
2022-11-18T14:24:55.260Z,99202.41
2022-11-18T14:27:41.375Z,99185.30
2022-11-18T14:30:36.281Z,99178.23
2022-11-18T14:33:18.556Z,99169.34
2022-11-18T14:35:54.266Z,99169.22
2022-11-18T14:38:51.927Z,99153.14
2022-11-18T14:41:48.899Z,99154.86
2022-11-18T14:44:24.524Z,99139.82
2022-11-18T14:47:01.524Z,99137.86
2022-11-18T14:49:35.374Z,99148.13
2022-11-18T14:52:11.175Z,99148.58
2022-11-18T14:54:44.483Z,99162.53
2022-11-18T14:57:19.256Z,99164.02
2022-11-18T14:59:52.873Z,99151.43
2022-11-18T15:02:26.066Z,99139.64
2022-11-18T15:04:59.430Z,99141.13
2022-11-18T15:07:32.682Z,99139.69
2022-11-18T15:10:06.647Z,99145.45
2022-11-18T15:12:40.024Z,99144.28
2022-11-18T15:15:14.137Z,99144.97
2022-11-18T15:17:51.115Z,99143.56
2022-11-18T15:20:27.174Z,99130.73
2022-11-18T15:23:00.566Z,99138.70
2022-11-18T15:25:34.167Z,99131.19
2022-11-18T15:28:08.038Z,99125.74
2022-11-18T15:30:41.568Z,99122.50
2022-11-18T15:33:15.171Z,99122.16
2022-11-18T15:35:48.564Z,99122.60
2022-11-18T15:38:21.963Z,99118.33
2022-11-18T15:40:55.493Z,99108.37
2022-11-18T15:43:29.333Z,99101.89
2022-11-18T15:46:03.972Z,99099.47
2022-11-18T15:48:37.565Z,99097.27
2022-11-18T15:51:12.262Z,99097.12
2022-11-18T15:53:46.350Z,99093.30
2022-11-18T15:56:29.399Z,99094.78
2022-11-18T15:59:04.067Z,99105.84
2022-11-18T16:01:39.543Z,99108.70
2022-11-18T16:04:15.897Z,99098.53
2022-11-18T16:06:49.796Z,99104.08
2022-11-18T16:09:23.205Z,99099.80
2022-11-18T16:12:13.774Z,99100.84
2022-11-18T16:15:07.250Z,99100.45
2022-11-18T16:17:40.503Z,99102.52
2022-11-18T16:20:15.451Z,99107.23
2022-11-18T16:22:49.060Z,99103.99
2022-11-18T16:25:22.331Z,99114.84
2022-11-18T16:27:55.849Z,99107.32
2022-11-18T16:30:46.448Z,99106.73
2022-11-18T16:33:19.926Z,99107.77
2022-11-18T16:35:53.039Z,99095.15
2022-11-18T16:38:26.634Z,99088.67
2022-11-18T16:41:00.817Z,99082.77
2022-11-18T16:43:33.900Z,99077.91
2022-11-18T16:46:11.757Z,99078.36
2022-11-18T16:48:45.601Z,99079.83
2022-11-18T16:51:25.056Z,99080.27
2022-11-18T16:53:59.533Z,99070.09
2022-11-18T16:56:34.735Z,99064.44
2022-11-18T16:59:12.561Z,99072.59
2022-11-18T17:01:46.657Z,99065.67
2022-11-18T17:04:20.911Z,99070.19
2022-11-18T17:06:55.416Z,99064.30
2022-11-18T17:09:29.223Z,99062.44
2022-11-18T17:12:03.429Z,99056.34
2022-11-18T17:14:38.759Z,99052.27
2022-11-18T17:17:12.334Z,99061.05
2022-11-18T17:19:45.935Z,99070.83
2022-11-18T17:22:19.742Z,99062.72
2022-11-18T17:24:53.014Z,99055.59
2022-11-18T17:27:26.427Z,99048.44
2022-11-18T17:29:59.922Z,99046.23
2022-11-18T17:32:33.325Z,99036.66
2022-11-18T17:35:08.491Z,99030.56
2022-11-18T17:37:41.856Z,99025.47
2022-11-18T17:40:16.946Z,99026.06
2022-11-18T17:42:53.077Z,99016.48
2022-11-18T17:45:26.863Z,99029.53
2022-11-18T17:48:00.853Z,99011.77
2022-11-18T17:50:34.465Z,98998.52
2022-11-18T17:53:07.774Z,99003.83
2022-11-18T17:55:41.218Z,98996.70
2022-11-18T17:58:15.297Z,99005.44
2022-11-18T18:00:48.425Z,99015.25
2022-11-18T18:03:21.849Z,99018.70
2022-11-18T18:06:02.528Z,99026.88
2022-11-18T18:08:36.518Z,99028.94
2022-11-18T18:11:13.472Z,99025.70
2022-11-18T18:14:04.700Z,99028.55
2022-11-18T18:16:38.170Z,99032.03
2022-11-18T18:19:14.054Z,99039.16
2022-11-18T18:21:48.780Z,99049.98
2022-11-18T18:24:22.612Z,99061.18
2022-11-18T18:26:58.009Z,99051.61
2022-11-18T18:29:31.010Z,99053.67
2022-11-18T18:32:04.406Z,99046.16
2022-11-18T18:34:37.621Z,99038.20
2022-11-18T18:37:11.052Z,99047.19
2022-11-18T18:39:44.177Z,99028.84
2022-11-18T18:42:17.344Z,99017.45
2022-11-18T18:45:08.378Z,99026.19
2022-11-18T18:47:42.998Z,99021.12
2022-11-18T18:50:16.057Z,99013.38
2022-11-18T18:52:49.790Z,99016.03
2022-11-18T18:55:23.389Z,99014.41
2022-11-18T18:57:56.782Z,99015.44
2022-11-18T19:00:33.164Z,99016.47
2022-11-18T19:03:06.544Z,99025.23
2022-11-18T19:06:16.962Z,99037.66
2022-11-18T19:08:33.972Z,99033.83
2022-11-18T19:11:30.768Z,99030.38
2022-11-18T19:14:09.309Z,99024.49
2022-11-18T19:16:44.049Z,99019.98
2022-11-18T19:19:19.295Z,99019.20
2022-11-18T19:21:52.617Z,99026.11
2022-11-18T19:27:19.572Z,99017.94
2022-11-18T19:29:52.939Z,99010.81
2022-11-18T19:32:26.906Z,99012.43
2022-11-18T19:35:00.498Z,99018.76
2022-11-18T19:37:34.157Z,99009.19
2022-11-18T19:40:10.515Z,99002.27
2022-11-18T19:42:44.185Z,99009.19
2022-11-18T19:45:17.850Z,99006.54
2022-11-18T19:47:51.219Z,99013.45
2022-11-18T19:50:24.760Z,99003.66
2022-11-18T19:52:58.245Z,98986.14
2022-11-18T19:55:31.748Z,98979.02
2022-11-18T19:58:05.255Z,98978.20
2022-11-18T20:00:38.590Z,98992.27
2022-11-18T20:03:11.993Z,98971.28
2022-11-18T20:05:54.640Z,98991.08
2022-11-18T20:08:28.626Z,98939.34
2022-11-18T20:11:09.104Z,98940.16
2022-11-18T20:13:47.261Z,98952.81
2022-11-18T20:16:22.637Z,98961.36
2022-11-18T20:18:58.587Z,98964.80
2022-11-18T20:21:33.276Z,98981.95
2022-11-18T20:24:09.101Z,98985.63
2022-11-18T20:26:42.172Z,99013.94
2022-11-18T20:29:16.636Z,99034.34
2022-11-18T20:31:50.199Z,99031.89
2022-11-18T20:34:23.798Z,99045.57
2022-11-18T20:36:57.011Z,99051.89
2022-11-18T20:39:30.587Z,99056.39
2022-11-18T20:42:20.778Z,99027.47
2022-11-18T20:44:54.376Z,99047.03
2022-11-18T20:47:27.566Z,99017.10
2022-11-18T20:50:00.757Z,99026.08
2022-11-18T20:52:36.240Z,99025.25
2022-11-18T20:55:11.726Z,99023.42
2022-11-18T20:57:45.036Z,99012.83
2022-11-18T21:00:19.833Z,99010.39
2022-11-18T21:02:53.073Z,99001.64
2022-11-18T21:05:26.459Z,99007.97
2022-11-18T21:07:59.433Z,99002.67
2022-11-18T21:10:33.668Z,99009.20
2022-11-18T21:13:24.247Z,99007.58
2022-11-18T21:15:57.287Z,98995.34
2022-11-18T21:18:33.718Z,99003.72
2022-11-18T21:21:24.705Z,98993.55
2022-11-18T21:23:59.858Z,99008.84
2022-11-18T21:26:34.467Z,99003.98
2022-11-18T21:29:09.704Z,99016.86
2022-11-18T21:31:44.123Z,99003.83
2022-11-18T21:34:18.960Z,99007.73
2022-11-18T21:36:54.847Z,99004.25
2022-11-18T21:39:29.326Z,99015.07
2022-11-18T21:42:02.541Z,99020.80
2022-11-18T21:44:36.112Z,99031.39
2022-11-18T21:47:09.306Z,99038.13
2022-11-18T21:49:43.115Z,99039.95
2022-11-18T21:52:16.556Z,99039.16
2022-11-18T21:54:49.694Z,99032.24
2022-11-18T21:57:22.881Z,99036.70
2022-11-18T21:59:56.969Z,99042.23
2022-11-18T22:02:30.080Z,99062.58
2022-11-18T22:05:07.028Z,99058.31
2022-11-18T22:07:41.726Z,99068.30
2022-11-18T22:10:17.054Z,99064.03
2022-11-18T22:12:51.724Z,99067.93
2022-11-18T22:15:25.442Z,99073.42
2022-11-18T22:17:58.844Z,99085.03
2022-11-18T22:20:32.238Z,99085.26
2022-11-18T22:23:06.251Z,99089.13
2022-11-18T22:25:39.316Z,99084.05
2022-11-18T22:28:13.243Z,99091.39
2022-11-18T22:30:46.433Z,99105.84
2022-11-18T22:33:19.831Z,99100.75
2022-11-18T22:35:52.987Z,99103.63
2022-11-18T22:38:26.630Z,99102.80
2022-11-18T22:41:04.052Z,99108.08
2022-11-18T22:43:37.915Z,99114.63
2022-11-18T22:46:12.280Z,99101.39
2022-11-18T22:48:45.938Z,99115.84
2022-11-18T22:51:20.009Z,99119.73
2022-11-18T22:54:09.753Z,99131.11
2022-11-18T22:56:46.971Z,99127.06
2022-11-18T22:59:20.618Z,99116.91
2022-11-18T23:01:54.995Z,99114.45
2022-11-18T23:04:28.214Z,99114.08
2022-11-18T23:07:01.870Z,99109.20
2022-11-18T23:09:35.414Z,99105.95
2022-11-18T23:12:27.648Z,99103.73
2022-11-18T23:15:01.246Z,99098.86
2022-11-18T23:17:34.653Z,99106.98
2022-11-18T23:20:10.823Z,99117.98
2022-11-18T23:22:43.890Z,99111.30
2022-11-18T23:25:17.422Z,99111.48
2022-11-18T23:27:54.165Z,99101.13
2022-11-18T23:30:27.459Z,99096.03
2022-11-18T23:33:00.806Z,99126.36
2022-11-18T23:35:34.372Z,99123.72
2022-11-18T23:38:07.946Z,99124.93
2022-11-18T23:40:41.543Z,99137.35
2022-11-18T23:43:14.938Z,99141.02
2022-11-18T23:45:48.329Z,99152.61
2022-11-18T23:48:23.024Z,99156.27
2022-11-18T23:51:00.932Z,99150.98
2022-11-18T23:53:35.146Z,99152.00
2022-11-18T23:56:12.178Z,99147.73
2022-11-18T23:58:46.943Z,99148.53
